Time;durP1;ratioP1;P1;durP2;ratioP2;P2;SDS_P1;SDS_P2;PMS_P1;PMS_P2;Temp;Humidity;BMP_temperature;BMP_pressure;BME280_temperature;BME280_humidity;BME280_pressure;Samples;Min_cycle;Max_cycle;Signal;HPM_P1;HPM_P2
2022/04/05 00:01:05;;;;;;;11.38;5.80;;;;;;;;;;5086237;28;20036;-69
2022/04/05 00:03:33;;;;;;;11.18;5.97;;;;;;;;;;5091266;28;20075;-69
2022/04/05 00:06:05;;;;;;;10.50;4.85;;;;;;;;;;5088392;28;20059;-69
2022/04/05 00:08:34;;;;;;;11.55;4.97;;;;;;;;;;5088911;28;20101;-69
2022/04/05 00:11:05;;;;;;;8.30;4.97;;;;;;;;;;5086947;28;20083;-69
2022/04/05 00:13:33;;;;;;;11.05;5.80;;;;;;;;;;5088068;28;20051;-68
2022/04/05 00:16:01;;;;;;;14.60;5.85;;;;;;;;;;5088579;28;20123;-69
2022/04/05 00:18:32;;;;;;;15.23;5.63;;;;;;;;;;5085909;28;20471;-68
2022/04/05 00:21:00;;;;;;;11.45;5.60;;;;;;;;;;5084238;28;20136;-69
2022/04/05 00:23:30;;;;;;;13.88;6.72;;;;;;;;;;5091953;28;20181;-69
2022/04/05 00:25:58;;;;;;;15.85;6.30;;;;;;;;;;5082771;28;20786;-69
2022/04/05 00:28:27;;;;;;;14.07;5.68;;;;;;;;;;5088711;28;20139;-69
2022/04/05 00:30:55;;;;;;;13.55;6.35;;;;;;;;;;5086334;28;20559;-68
2022/04/05 00:33:23;;;;;;;12.05;5.50;;;;;;;;;;5082194;28;20044;-69
2022/04/05 00:35:52;;;;;;;11.40;5.53;;;;;;;;;;5081929;28;20438;-69
2022/04/05 00:38:20;;;;;;;11.98;5.55;;;;;;;;;;5088207;28;20098;-69
2022/04/05 00:40:50;;;;;;;11.65;4.90;;;;;;;;;;5088154;28;20122;-69
2022/04/05 00:43:18;;;;;;;12.07;5.68;;;;;;;;;;5088664;28;20052;-69
2022/04/05 00:45:47;;;;;;;11.43;5.35;;;;;;;;;;5092197;28;20054;-69
2022/04/05 00:48:24;;;;;;;12.93;5.72;;;;;;;;;;5087289;28;20112;-69
2022/04/05 00:50:52;;;;;;;11.10;5.10;;;;;;;;;;5084155;28;20083;-69
2022/04/05 00:53:21;;;;;;;13.07;5.90;;;;;;;;;;5084675;28;20051;-70
2022/04/05 00:55:53;;;;;;;16.13;6.50;;;;;;;;;;5083932;28;20092;-69
2022/04/05 00:58:22;;;;;;;10.95;5.75;;;;;;;;;;5083952;28;20048;-69
2022/04/05 01:00:52;;;;;;;14.05;6.10;;;;;;;;;;5081401;28;20044;-70
2022/04/05 01:03:22;;;;;;;12.98;5.65;;;;;;;;;;5093426;28;20040;-69
2022/04/05 01:05:51;;;;;;;11.90;6.28;;;;;;;;;;5084519;28;20122;-69
2022/04/05 01:08:21;;;;;;;11.90;5.95;;;;;;;;;;5082357;28;20094;-70
2022/04/05 01:10:50;;;;;;;12.48;6.32;;;;;;;;;;5081626;28;20056;-70
2022/04/05 01:13:20;;;;;;;12.73;6.22;;;;;;;;;;5089308;28;20055;-70
2022/04/05 01:15:49;;;;;;;15.05;6.40;;;;;;;;;;5091510;28;20506;-70
2022/04/05 01:18:17;;;;;;;12.50;6.00;;;;;;;;;;5078810;28;20289;-70
2022/04/05 01:20:46;;;;;;;13.40;6.45;;;;;;;;;;5087436;28;20075;-70
2022/04/05 01:23:14;;;;;;;9.65;4.65;;;;;;;;;;5086135;28;20047;-70
2022/04/05 01:25:44;;;;;;;13.35;6.25;;;;;;;;;;5080473;28;20127;-70
2022/04/05 01:28:13;;;;;;;11.73;5.43;;;;;;;;;;5096123;28;20139;-70
2022/04/05 01:30:41;;;;;;;14.35;6.18;;;;;;;;;;5083328;28;20374;-70
2022/04/05 01:33:09;;;;;;;10.93;5.47;;;;;;;;;;5083434;28;20505;-70
2022/04/05 01:35:39;;;;;;;13.68;5.00;;;;;;;;;;5079122;28;20143;-70
2022/04/05 01:38:09;;;;;;;18.70;5.40;;;;;;;;;;5084584;28;20166;-70
2022/04/05 01:40:37;;;;;;;12.95;6.07;;;;;;;;;;5090998;28;20495;-70
2022/04/05 01:43:07;;;;;;;12.48;5.88;;;;;;;;;;5092864;28;20138;-70
2022/04/05 01:45:36;;;;;;;12.63;5.70;;;;;;;;;;5094615;28;20358;-69
2022/04/05 01:48:05;;;;;;;8.70;4.70;;;;;;;;;;5087862;28;20047;-71
2022/04/05 01:50:33;;;;;;;10.15;4.28;;;;;;;;;;5090662;28;20127;-70
2022/04/05 01:53:02;;;;;;;10.07;5.68;;;;;;;;;;5085982;28;20134;-69
2022/04/05 01:55:30;;;;;;;14.38;5.95;;;;;;;;;;5075837;28;20048;-69
2022/04/05 01:57:58;;;;;;;11.35;5.65;;;;;;;;;;5080971;28;20611;-70
2022/04/05 02:00:28;;;;;;;10.32;5.95;;;;;;;;;;5088817;28;20047;-70
2022/04/05 02:02:56;;;;;;;10.48;5.53;;;;;;;;;;5099124;28;20085;-69
2022/04/05 02:05:25;;;;;;;13.27;4.28;;;;;;;;;;5080537;28;20093;-69
2022/04/05 02:07:53;;;;;;;11.23;5.43;;;;;;;;;;5090585;28;20071;-69
2022/04/05 02:10:21;;;;;;;11.38;4.75;;;;;;;;;;5089783;28;20086;-70
2022/04/05 02:12:52;;;;;;;13.98;6.18;;;;;;;;;;5087226;28;20079;-70
2022/04/05 02:15:21;;;;;;;11.48;4.68;;;;;;;;;;5091934;28;20091;-69
2022/04/05 02:17:51;;;;;;;14.73;6.00;;;;;;;;;;5086808;28;20122;-69
2022/04/05 02:20:19;;;;;;;12.50;5.40;;;;;;;;;;5083734;28;20052;-70
2022/04/05 02:22:47;;;;;;;11.13;5.32;;;;;;;;;;5079706;28;20055;-69
2022/04/05 02:25:17;;;;;;;12.27;5.63;;;;;;;;;;5079202;28;20055;-70
2022/04/05 02:27:45;;;;;;;9.93;4.78;;;;;;;;;;5083744;28;20781;-70
2022/04/05 02:30:13;;;;;;;11.88;5.80;;;;;;;;;;5074422;28;20067;-71
2022/04/05 02:32:42;;;;;;;11.30;5.22;;;;;;;;;;5082461;28;20449;-70
2022/04/05 02:35:11;;;;;;;11.45;4.28;;;;;;;;;;5087732;28;20127;-70
2022/04/05 02:37:40;;;;;;;10.80;5.25;;;;;;;;;;5082232;28;20071;-70
2022/04/05 02:40:09;;;;;;;10.70;5.45;;;;;;;;;;5083840;28;20151;-70
2022/04/05 02:42:39;;;;;;;10.68;5.15;;;;;;;;;;5076719;28;20141;-69
2022/04/05 02:45:08;;;;;;;8.00;3.80;;;;;;;;;;5085122;28;20591;-69
2022/04/05 02:47:36;;;;;;;10.95;5.40;;;;;;;;;;5082012;28;20128;-70
2022/04/05 02:50:05;;;;;;;8.68;4.38;;;;;;;;;;5085206;28;20138;-70
2022/04/05 02:52:35;;;;;;;8.98;3.83;;;;;;;;;;5082999;28;20079;-69
2022/04/05 02:55:04;;;;;;;11.15;5.30;;;;;;;;;;5081808;28;20136;-69
2022/04/05 02:57:32;;;;;;;12.90;4.90;;;;;;;;;;5088140;28;20087;-69
2022/04/05 03:00:00;;;;;;;8.18;4.10;;;;;;;;;;5085737;28;20052;-69
2022/04/05 03:02:29;;;;;;;9.57;4.72;;;;;;;;;;5086440;28;20590;-69
2022/04/05 03:04:58;;;;;;;9.90;4.88;;;;;;;;;;5086427;28;20202;-69
2022/04/05 03:07:26;;;;;;;8.35;3.90;;;;;;;;;;5086774;28;20429;-69
2022/04/05 03:09:55;;;;;;;7.38;4.30;;;;;;;;;;5078072;28;20246;-69
2022/04/05 03:12:26;;;;;;;7.88;4.07;;;;;;;;;;5061864;28;20132;-69
2022/04/05 03:14:54;;;;;;;8.02;3.78;;;;;;;;;;5085173;28;20496;-69
2022/04/05 03:17:22;;;;;;;7.57;3.78;;;;;;;;;;5084827;28;20474;-69
2022/04/05 03:19:51;;;;;;;9.38;4.60;;;;;;;;;;5085015;28;20126;-69
2022/04/05 03:22:19;;;;;;;11.88;3.92;;;;;;;;;;5085979;28;20059;-68
2022/04/05 03:24:47;;;;;;;8.45;3.78;;;;;;;;;;5085351;28;20131;-69
2022/04/05 03:27:17;;;;;;;12.27;4.55;;;;;;;;;;5088067;28;20582;-69
2022/04/05 03:29:45;;;;;;;9.60;4.05;;;;;;;;;;5083973;28;20052;-69
2022/04/05 03:32:13;;;;;;;10.98;4.28;;;;;;;;;;5088280;28;20476;-69
2022/04/05 03:34:42;;;;;;;8.57;4.40;;;;;;;;;;5086637;28;20126;-69
2022/04/05 03:37:10;;;;;;;8.80;3.88;;;;;;;;;;5086497;28;20447;-69
2022/04/05 03:39:39;;;;;;;10.15;4.53;;;;;;;;;;5091627;28;20167;-69
2022/04/05 03:42:08;;;;;;;12.52;4.03;;;;;;;;;;5090874;28;20150;-69
2022/04/05 03:44:37;;;;;;;6.97;3.65;;;;;;;;;;5090158;28;20491;-69
2022/04/05 03:47:06;;;;;;;8.68;4.18;;;;;;;;;;5086098;28;20132;-68
2022/04/05 03:49:34;;;;;;;9.40;4.55;;;;;;;;;;5086946;28;20078;-69
2022/04/05 03:52:03;;;;;;;5.53;3.05;;;;;;;;;;5086436;28;20539;-69
2022/04/05 03:54:31;;;;;;;9.77;4.32;;;;;;;;;;5084220;28;20112;-70
2022/04/05 03:56:59;;;;;;;8.93;4.13;;;;;;;;;;5087868;28;20048;-69
2022/04/05 03:59:28;;;;;;;8.38;4.28;;;;;;;;;;5082592;28;20353;-70
2022/04/05 04:01:58;;;;;;;8.90;4.00;;;;;;;;;;5085308;28;20470;-70
2022/04/05 04:04:26;;;;;;;6.03;3.97;;;;;;;;;;5086224;28;20110;-69
2022/04/05 04:06:54;;;;;;;9.52;4.28;;;;;;;;;;5088203;28;20078;-69
2022/04/05 04:09:23;;;;;;;7.97;4.25;;;;;;;;;;5092355;28;20132;-69
2022/04/05 04:11:52;;;;;;;7.20;4.05;;;;;;;;;;5082322;28;20040;-71
2022/04/05 04:14:20;;;;;;;12.38;4.40;;;;;;;;;;5088580;28;20150;-69
2022/04/05 04:16:48;;;;;;;9.85;4.03;;;;;;;;;;5082000;28;20155;-69
2022/04/05 04:19:18;;;;;;;8.18;3.70;;;;;;;;;;5086228;28;20166;-69
2022/04/05 04:21:47;;;;;;;7.95;4.28;;;;;;;;;;5084179;28;20124;-71
2022/04/05 04:24:15;;;;;;;8.30;3.65;;;;;;;;;;5085782;28;20127;-70
2022/04/05 04:26:44;;;;;;;12.98;5.07;;;;;;;;;;5084340;28;20040;-70
2022/04/05 04:29:12;;;;;;;6.45;3.10;;;;;;;;;;5088699;28;20086;-69
2022/04/05 04:31:40;;;;;;;8.80;4.22;;;;;;;;;;5088047;28;20076;-70
2022/04/05 04:34:08;;;;;;;9.30;3.80;;;;;;;;;;5086775;28;20139;-70
2022/04/05 04:36:38;;;;;;;7.30;3.08;;;;;;;;;;5081176;28;20127;-70
2022/04/05 04:39:06;;;;;;;8.65;3.63;;;;;;;;;;5089132;28;20078;-70
2022/04/05 04:41:35;;;;;;;9.60;4.15;;;;;;;;;;5088220;28;20135;-69
2022/04/05 04:44:03;;;;;;;7.75;3.47;;;;;;;;;;5083268;28;20075;-70
2022/04/05 04:46:31;;;;;;;8.50;3.55;;;;;;;;;;5080698;28;20217;-70
2022/04/05 04:49:00;;;;;;;8.20;3.80;;;;;;;;;;5082998;28;20067;-70
2022/04/05 04:51:28;;;;;;;7.68;3.80;;;;;;;;;;5080718;28;20044;-70
2022/04/05 04:53:58;;;;;;;9.73;4.13;;;;;;;;;;5084995;28;20079;-69
2022/04/05 04:56:27;;;;;;;8.93;4.47;;;;;;;;;;5085956;28;20047;-70
2022/04/05 04:58:55;;;;;;;8.00;3.53;;;;;;;;;;5074609;28;20480;-70
2022/04/05 05:01:23;;;;;;;9.77;4.13;;;;;;;;;;5077214;28;20637;-69
2022/04/05 05:03:52;;;;;;;8.95;4.30;;;;;;;;;;5083235;28;20047;-69
2022/04/05 05:06:20;;;;;;;7.38;3.75;;;;;;;;;;5078092;28;20079;-70
2022/04/05 05:08:49;;;;;;;9.10;4.10;;;;;;;;;;5084585;28;20898;-70
2022/04/05 05:11:18;;;;;;;10.93;4.65;;;;;;;;;;5079507;28;20048;-70
2022/04/05 05:13:47;;;;;;;7.72;4.35;;;;;;;;;;5082846;28;20623;-70
2022/04/05 05:16:15;;;;;;;12.45;4.78;;;;;;;;;;5088877;28;20143;-70
2022/04/05 05:18:43;;;;;;;9.57;4.80;;;;;;;;;;5084794;28;20526;-70
2022/04/05 05:21:12;;;;;;;10.75;5.25;;;;;;;;;;5085302;28;20047;-70
2022/04/05 05:23:40;;;;;;;10.50;4.10;;;;;;;;;;5086477;28;20129;-70
2022/04/05 05:26:09;;;;;;;12.05;5.35;;;;;;;;;;5083917;28;20079;-70
2022/04/05 05:28:38;;;;;;;11.65;4.78;;;;;;;;;;5088551;28;20120;-69
2022/04/05 05:31:07;;;;;;;10.15;4.63;;;;;;;;;;5092875;28;20565;-69
2022/04/05 05:33:35;;;;;;;9.88;4.85;;;;;;;;;;5072228;28;20654;-70
2022/04/05 05:36:06;;;;;;;11.85;5.22;;;;;;;;;;5087449;28;20128;-70
2022/04/05 05:38:35;;;;;;;13.00;4.93;;;;;;;;;;5087211;28;20458;-70
2022/04/05 05:41:06;;;;;;;13.55;5.00;;;;;;;;;;5090929;28;20040;-69
2022/04/05 05:43:35;;;;;;;10.80;4.55;;;;;;;;;;5088385;28;20495;-70
2022/04/05 05:46:07;;;;;;;12.07;4.45;;;;;;;;;;5081968;28;20491;-69
2022/04/05 05:48:36;;;;;;;12.38;4.45;;;;;;;;;;5085867;28;20495;-70
2022/04/05 05:51:07;;;;;;;12.15;4.38;;;;;;;;;;5086861;28;20109;-70
2022/04/05 05:53:36;;;;;;;10.27;3.92;;;;;;;;;;5090527;28;20044;-70
2022/04/05 05:56:07;;;;;;;10.75;4.72;;;;;;;;;;5087911;28;20235;-70
2022/04/05 05:58:36;;;;;;;10.30;5.05;;;;;;;;;;5085458;28;20085;-69
2022/04/05 06:01:09;;;;;;;12.15;4.72;;;;;;;;;;5089301;28;20131;-69
2022/04/05 06:03:38;;;;;;;10.55;4.25;;;;;;;;;;5084033;28;20528;-69
2022/04/05 06:06:06;;;;;;;11.38;4.63;;;;;;;;;;5083773;28;20062;-69
2022/04/05 06:08:35;;;;;;;10.50;4.45;;;;;;;;;;5088618;28;20551;-69
2022/04/05 06:11:07;;;;;;;11.70;4.57;;;;;;;;;;5088377;28;20044;-69
2022/04/05 06:13:36;;;;;;;11.60;4.72;;;;;;;;;;5088500;28;20128;-70
2022/04/05 06:16:09;;;;;;;10.65;4.93;;;;;;;;;;5086625;28;20121;-70
2022/04/05 06:18:37;;;;;;;10.32;3.88;;;;;;;;;;5090538;28;20043;-69
2022/04/05 06:21:06;;;;;;;11.98;5.05;;;;;;;;;;5080971;28;20473;-69
2022/04/05 06:23:34;;;;;;;11.70;5.05;;;;;;;;;;5087589;28;20055;-69
2022/04/05 06:26:06;;;;;;;13.90;4.90;;;;;;;;;;5084091;28;20464;-69
2022/04/05 06:28:35;;;;;;;10.38;5.05;;;;;;;;;;5084979;28;20044;-69
2022/04/05 06:31:06;;;;;;;9.25;4.53;;;;;;;;;;5082910;28;20375;-70
2022/04/05 06:33:37;;;;;;;12.23;5.20;;;;;;;;;;5085660;28;20054;-69
2022/04/05 06:36:05;;;;;;;14.77;5.18;;;;;;;;;;5083799;28;20072;-69
2022/04/05 06:38:34;;;;;;;10.70;5.63;;;;;;;;;;5080211;28;20044;-68
2022/04/05 06:41:08;;;;;;;9.38;4.78;;;;;;;;;;5085338;28;20143;-69
2022/04/05 06:43:37;;;;;;;10.50;5.20;;;;;;;;;;5087567;28;20055;-69
2022/04/05 06:46:05;;;;;;;13.75;5.55;;;;;;;;;;5083497;28;20101;-70
2022/04/05 06:48:34;;;;;;;10.90;4.93;;;;;;;;;;5090184;28;20066;-70
2022/04/05 06:51:07;;;;;;;12.13;5.20;;;;;;;;;;5086816;28;20511;-69
2022/04/05 06:53:41;;;;;;;10.52;4.80;;;;;;;;;;5084097;28;20072;-69
2022/04/05 06:56:10;;;;;;;14.63;5.25;;;;;;;;;;5073368;28;20052;-69
2022/04/05 06:58:38;;;;;;;11.85;5.07;;;;;;;;;;5072913;28;20062;-69
2022/04/05 07:01:07;;;;;;;11.77;5.00;;;;;;;;;;5091115;28;20047;-69
2022/04/05 07:03:35;;;;;;;10.98;5.15;;;;;;;;;;5082005;28;20223;-69
2022/04/05 07:06:08;;;;;;;6.70;2.78;;;;;;;;;;5078895;28;20044;-69
2022/04/05 07:08:37;;;;;;;10.68;4.82;;;;;;;;;;5075082;28;20506;-69
2022/04/05 07:11:07;;;;;;;10.05;4.10;;;;;;;;;;5083437;28;20052;-69
2022/04/05 07:13:36;;;;;;;9.63;4.60;;;;;;;;;;5088398;28;20056;-69
2022/04/05 07:16:08;;;;;;;12.13;5.45;;;;;;;;;;5084758;28;20044;-69
2022/04/05 07:18:37;;;;;;;11.50;5.07;;;;;;;;;;5080918;28;20127;-69
2022/04/05 07:21:06;;;;;;;11.50;4.85;;;;;;;;;;5079882;28;20087;-69
2022/04/05 07:23:37;;;;;;;15.93;4.65;;;;;;;;;;5085918;28;20055;-69
2022/04/05 07:26:06;;;;;;;9.07;4.50;;;;;;;;;;5078572;28;20060;-69
2022/04/05 07:28:35;;;;;;;8.85;4.18;;;;;;;;;;5083978;28;20169;-69
2022/04/05 07:31:07;;;;;;;9.65;5.32;;;;;;;;;;5092120;28;20048;-69
2022/04/05 07:33:36;;;;;;;9.00;4.18;;;;;;;;;;5089615;28;20135;-69
2022/04/05 07:36:07;;;;;;;10.55;4.57;;;;;;;;;;5087088;28;20182;-69
2022/04/05 07:38:38;;;;;;;10.73;4.97;;;;;;;;;;5089283;28;20134;-70
2022/04/05 07:41:06;;;;;;;10.48;4.82;;;;;;;;;;5089265;28;20052;-68
2022/04/05 07:43:35;;;;;;;10.95;4.40;;;;;;;;;;5087381;28;20376;-69
2022/04/05 07:46:07;;;;;;;8.15;4.40;;;;;;;;;;5088576;28;20135;-69
2022/04/05 07:48:36;;;;;;;9.43;4.22;;;;;;;;;;5088130;28;20048;-69
2022/04/05 07:51:08;;;;;;;12.93;4.57;;;;;;;;;;5087601;28;20119;-69
2022/04/05 07:53:38;;;;;;;8.68;4.18;;;;;;;;;;5087551;28;20044;-70
2022/04/05 07:56:07;;;;;;;9.98;3.88;;;;;;;;;;5089260;28;22196;-68
2022/04/05 07:58:36;;;;;;;7.65;4.07;;;;;;;;;;5085760;28;20050;-68
2022/04/05 08:01:09;;;;;;;12.25;3.88;;;;;;;;;;5085465;28;20097;-68
2022/04/05 08:03:38;;;;;;;10.15;4.18;;;;;;;;;;5086406;28;20044;-69
2022/04/05 08:06:08;;;;;;;7.75;3.60;;;;;;;;;;5086136;28;20059;-69
2022/04/05 08:08:37;;;;;;;8.23;3.95;;;;;;;;;;5086174;28;20097;-68
2022/04/05 08:11:25;;;;;;;9.85;4.05;;;;;;;;;;5088077;28;20044;-69
2022/04/05 08:13:56;;;;;;;9.80;4.00;;;;;;;;;;5091070;28;20040;-69
2022/04/05 08:16:30;;;;;;;7.85;4.10;;;;;;;;;;5086421;28;20056;-68
2022/04/05 08:18:59;;;;;;;11.25;4.10;;;;;;;;;;5088796;28;20040;-69
2022/04/05 08:21:30;;;;;;;9.30;3.80;;;;;;;;;;5087431;28;20054;-69
2022/04/05 08:23:59;;;;;;;8.88;4.75;;;;;;;;;;5087369;28;20044;-69
2022/04/05 08:26:29;;;;;;;7.95;3.55;;;;;;;;;;5087028;28;20781;-69
2022/04/05 08:28:58;;;;;;;11.77;3.70;;;;;;;;;;5086567;28;20071;-69
2022/04/05 08:31:27;;;;;;;7.75;4.05;;;;;;;;;;5088182;28;20051;-69
2022/04/05 08:33:57;;;;;;;8.63;3.92;;;;;;;;;;5088051;28;20291;-69
2022/04/05 08:36:25;;;;;;;7.63;3.33;;;;;;;;;;5084771;28;20043;-69
2022/04/05 08:38:54;;;;;;;7.88;3.70;;;;;;;;;;5089442;28;20040;-69
2022/04/05 08:41:26;;;;;;;8.57;3.92;;;;;;;;;;5085458;28;20048;-69
2022/04/05 08:43:56;;;;;;;10.90;4.03;;;;;;;;;;5088881;28;20072;-69
2022/04/05 08:46:25;;;;;;;7.45;3.45;;;;;;;;;;5089218;28;20051;-69
2022/04/05 08:48:55;;;;;;;6.72;3.13;;;;;;;;;;5082054;28;20040;-69
2022/04/05 08:51:23;;;;;;;6.05;3.03;;;;;;;;;;5090857;28;20131;-68
2022/04/05 08:53:52;;;;;;;10.73;3.38;;;;;;;;;;5092173;28;20101;-69
2022/04/05 08:56:21;;;;;;;6.80;3.08;;;;;;;;;;5089055;28;20079;-69
2022/04/05 08:58:49;;;;;;;7.03;3.28;;;;;;;;;;5090619;28;20495;-69
2022/04/05 09:01:19;;;;;;;8.00;3.60;;;;;;;;;;5092705;28;20392;-69
2022/04/05 09:03:48;;;;;;;7.28;3.50;;;;;;;;;;5093656;28;20558;-70
2022/04/05 09:06:28;;;;;;;6.80;3.20;;;;;;;;;;5084897;28;20091;-69
2022/04/05 09:09:08;;;;;;;6.55;2.95;;;;;;;;;;5082552;28;20055;-69
2022/04/05 09:11:36;;;;;;;5.72;2.30;;;;;;;;;;5096083;28;20050;-69
2022/04/05 09:14:06;;;;;;;6.72;3.28;;;;;;;;;;5089922;28;20052;-69
2022/04/05 09:16:36;;;;;;;6.82;3.03;;;;;;;;;;5092482;28;20348;-69
2022/04/05 09:19:11;;;;;;;6.20;3.00;;;;;;;;;;5092038;28;20093;-69
2022/04/05 09:21:53;;;;;;;6.65;3.00;;;;;;;;;;5089154;28;20074;-69
2022/04/05 09:24:22;;;;;;;4.45;2.08;;;;;;;;;;5091766;28;20063;-69
2022/04/05 09:26:51;;;;;;;4.72;2.35;;;;;;;;;;5089935;28;20079;-69
2022/04/05 09:29:20;;;;;;;6.30;2.80;;;;;;;;;;5086081;28;20097;-69
2022/04/05 09:31:50;;;;;;;4.80;2.88;;;;;;;;;;5089154;28;20097;-69
2022/04/05 09:34:21;;;;;;;5.80;3.00;;;;;;;;;;5089887;28;20412;-70
2022/04/05 09:36:50;;;;;;;6.57;3.00;;;;;;;;;;5084904;28;20051;-69
2022/04/05 09:39:21;;;;;;;5.57;2.83;;;;;;;;;;5089407;28;20056;-70
2022/04/05 09:41:52;;;;;;;3.65;2.38;;;;;;;;;;5091422;28;20052;-71
2022/04/05 09:44:27;;;;;;;5.93;2.42;;;;;;;;;;5091112;28;20048;-71
2022/04/05 09:47:08;;;;;;;9.43;3.03;;;;;;;;;;5092855;28;20044;-70
2022/04/05 09:49:37;;;;;;;6.85;2.50;;;;;;;;;;5085073;28;20040;-71
2022/04/05 09:52:21;;;;;;;4.85;2.20;;;;;;;;;;5091153;28;20427;-70
2022/04/05 09:54:49;;;;;;;8.05;2.30;;;;;;;;;;5091407;28;20097;-71
2022/04/05 09:57:28;;;;;;;5.38;2.38;;;;;;;;;;5090719;28;20048;-70
2022/04/05 10:00:07;;;;;;;6.00;2.97;;;;;;;;;;5086418;28;20044;-70
2022/04/05 10:02:38;;;;;;;6.82;3.08;;;;;;;;;;5090667;28;20499;-71
2022/04/05 10:05:09;;;;;;;5.60;2.30;;;;;;;;;;5090312;28;20453;-70
2022/04/05 10:07:38;;;;;;;8.18;2.67;;;;;;;;;;5088371;28;20117;-71
2022/04/05 10:10:08;;;;;;;5.63;2.50;;;;;;;;;;5093530;28;20047;-71
2022/04/05 10:12:43;;;;;;;4.63;2.25;;;;;;;;;;5092576;28;20036;-70
2022/04/05 10:15:12;;;;;;;7.32;3.08;;;;;;;;;;5090150;28;20884;-71
2022/04/05 10:17:45;;;;;;;5.07;2.65;;;;;;;;;;5089496;28;20142;-71
2022/04/05 10:20:14;;;;;;;5.65;2.67;;;;;;;;;;5091436;28;20583;-71
2022/04/05 10:22:43;;;;;;;5.15;2.40;;;;;;;;;;5091027;28;20044;-71
2022/04/05 10:25:12;;;;;;;6.78;2.58;;;;;;;;;;5090864;28;20519;-70
2022/04/05 10:27:41;;;;;;;5.68;2.83;;;;;;;;;;5093224;28;20051;-71
2022/04/05 10:30:17;;;;;;;5.93;2.78;;;;;;;;;;5090724;28;20488;-70
2022/04/05 10:32:51;;;;;;;6.38;3.28;;;;;;;;;;5078793;28;20044;-70
2022/04/05 10:35:23;;;;;;;7.25;3.20;;;;;;;;;;5095372;28;20395;-70
2022/04/05 10:37:52;;;;;;;6.63;3.53;;;;;;;;;;5083123;28;20069;-69
2022/04/05 10:40:21;;;;;;;5.68;3.25;;;;;;;;;;5080856;28;20055;-70
2022/04/05 10:42:52;;;;;;;6.03;2.97;;;;;;;;;;5077849;28;20037;-70
2022/04/05 10:45:21;;;;;;;5.93;3.17;;;;;;;;;;5085175;28;20097;-71
2022/04/05 10:48:01;;;;;;;6.93;3.78;;;;;;;;;;5075493;28;20059;-72
2022/04/05 10:51:10;;;;;;;6.47;2.97;;;;;;;;;;5084053;28;20036;-71
2022/04/05 10:53:41;;;;;;;9.25;3.00;;;;;;;;;;5069262;28;20052;-70
2022/04/05 10:56:14;;;;;;;8.32;3.45;;;;;;;;;;5070928;28;20484;-72
2022/04/05 10:59:05;;;;;;;6.28;2.90;;;;;;;;;;5069051;28;20052;-71
2022/04/05 11:01:39;;;;;;;8.23;3.00;;;;;;;;;;5069303;28;20048;-70
2022/04/05 11:04:31;;;;;;;5.88;2.70;;;;;;;;;;5068532;28;20040;-71
2022/04/05 11:07:07;;;;;;;5.97;3.35;;;;;;;;;;5066228;28;20090;-69
2022/04/05 11:09:36;;;;;;;9.00;3.45;;;;;;;;;;5069735;28;20369;-71
2022/04/05 11:12:06;;;;;;;5.10;3.28;;;;;;;;;;5069036;28;20045;-69
2022/04/05 11:14:39;;;;;;;7.65;3.60;;;;;;;;;;5079122;28;20056;-71
2022/04/05 11:17:09;;;;;;;8.05;3.35;;;;;;;;;;5082034;28;20052;-71
2022/04/05 11:19:39;;;;;;;5.30;2.85;;;;;;;;;;5072375;28;20097;-70
2022/04/05 11:22:27;;;;;;;7.60;3.17;;;;;;;;;;5074501;28;20055;-70
2022/04/05 11:24:57;;;;;;;8.23;3.28;;;;;;;;;;5071887;28;20466;-71
2022/04/05 11:27:29;;;;;;;7.25;3.10;;;;;;;;;;5068199;28;20087;-71
2022/04/05 11:30:16;;;;;;;7.65;3.03;;;;;;;;;;5078515;28;20403;-70
2022/04/05 11:33:01;;;;;;;8.50;3.30;;;;;;;;;;5079972;28;20037;-70
2022/04/05 11:35:40;;;;;;;6.05;3.92;;;;;;;;;;5053683;28;20084;-69
2022/04/05 11:38:26;;;;;;;8.98;3.90;;;;;;;;;;5066576;28;20607;-71
2022/04/05 11:40:56;;;;;;;6.80;3.15;;;;;;;;;;5085890;28;20058;-70
2022/04/05 11:43:27;;;;;;;6.50;3.28;;;;;;;;;;5084535;28;20044;-70
2022/04/05 11:45:57;;;;;;;8.43;3.72;;;;;;;;;;5083082;28;20070;-70
2022/04/05 11:48:27;;;;;;;6.18;3.03;;;;;;;;;;5085193;28;20052;-71
2022/04/05 11:50:59;;;;;;;5.63;3.00;;;;;;;;;;5088327;28;20054;-69
2022/04/05 11:53:30;;;;;;;6.53;3.10;;;;;;;;;;5085603;28;20044;-70
2022/04/05 11:56:10;;;;;;;5.35;3.08;;;;;;;;;;5086798;28;20137;-70
2022/04/05 11:58:39;;;;;;;5.88;2.85;;;;;;;;;;5085440;28;20510;-69
2022/04/05 12:01:09;;;;;;;6.20;3.03;;;;;;;;;;5086039;28;20063;-72
2022/04/05 12:03:42;;;;;;;6.85;3.22;;;;;;;;;;5084087;28;20332;-70
2022/04/05 12:06:12;;;;;;;3.97;2.15;;;;;;;;;;5091656;28;20407;-70
2022/04/05 12:08:41;;;;;;;5.63;2.50;;;;;;;;;;5080897;28;20483;-69
2022/04/05 12:11:10;;;;;;;5.93;2.92;;;;;;;;;;5087666;28;20070;-69
2022/04/05 12:13:38;;;;;;;5.30;2.25;;;;;;;;;;5090938;28;20044;-69
2022/04/05 12:16:07;;;;;;;4.55;2.67;;;;;;;;;;5088484;28;20047;-69
2022/04/05 12:18:36;;;;;;;4.75;2.55;;;;;;;;;;5085263;28;20056;-69
2022/04/05 12:21:09;;;;;;;4.85;2.80;;;;;;;;;;5083468;28;20054;-70
2022/04/05 12:23:41;;;;;;;5.40;2.30;;;;;;;;;;5088243;28;20047;-70
2022/04/05 12:26:12;;;;;;;5.22;2.50;;;;;;;;;;5087710;28;20044;-69
2022/04/05 12:28:42;;;;;;;4.63;2.28;;;;;;;;;;5076918;28;20040;-70
2022/04/05 12:31:12;;;;;;;5.95;2.40;;;;;;;;;;5088056;28;20052;-70
2022/04/05 12:33:42;;;;;;;5.20;2.60;;;;;;;;;;5088817;28;20130;-70
2022/04/05 12:36:10;;;;;;;5.53;2.50;;;;;;;;;;5084790;28;20075;-69
2022/04/05 12:38:41;;;;;;;6.78;2.22;;;;;;;;;;5087602;28;20048;-69
2022/04/05 12:41:14;;;;;;;3.63;2.30;;;;;;;;;;5088761;28;20046;-70
2022/04/05 12:43:43;;;;;;;3.90;2.33;;;;;;;;;;5090256;28;20044;-70
2022/04/05 12:46:13;;;;;;;4.75;2.38;;;;;;;;;;5088632;28;20105;-70
2022/04/05 12:48:43;;;;;;;4.88;2.25;;;;;;;;;;5087094;28;20046;-71
2022/04/05 12:51:11;;;;;;;4.00;2.13;;;;;;;;;;5085910;28;20074;-69
2022/04/05 12:53:41;;;;;;;3.65;2.17;;;;;;;;;;5087133;28;20044;-70
2022/04/05 12:56:13;;;;;;;4.32;2.47;;;;;;;;;;5091526;28;20119;-70
2022/04/05 12:58:45;;;;;;;5.35;2.83;;;;;;;;;;5086529;28;20044;-69
2022/04/05 13:01:20;;;;;;;5.10;2.78;;;;;;;;;;5088171;28;20040;-70
2022/04/05 13:03:49;;;;;;;4.40;2.47;;;;;;;;;;5087210;28;20047;-70
2022/04/05 13:06:28;;;;;;;6.60;2.72;;;;;;;;;;5077489;28;20463;-70
2022/04/05 13:09:08;;;;;;;3.30;2.05;;;;;;;;;;5085371;28;20610;-69
2022/04/05 13:11:37;;;;;;;5.78;2.60;;;;;;;;;;5080433;28;20044;-70
2022/04/05 13:14:07;;;;;;;4.53;2.35;;;;;;;;;;5087239;28;20496;-69
2022/04/05 13:16:36;;;;;;;4.47;2.40;;;;;;;;;;5082744;28;20055;-69
2022/04/05 13:19:09;;;;;;;5.80;2.63;;;;;;;;;;5080428;28;20052;-69
2022/04/05 13:21:43;;;;;;;4.05;2.70;;;;;;;;;;5078831;28;20052;-70
2022/04/05 13:24:13;;;;;;;3.70;2.38;;;;;;;;;;5083385;28;20128;-70
2022/04/05 13:26:43;;;;;;;6.18;2.60;;;;;;;;;;5073591;28;20277;-70
2022/04/05 13:29:13;;;;;;;4.88;2.22;;;;;;;;;;5086542;28;20376;-69
2022/04/05 13:31:43;;;;;;;5.30;2.67;;;;;;;;;;5080007;28;20052;-69
2022/04/05 13:34:12;;;;;;;4.35;2.30;;;;;;;;;;5083087;28;20051;-69
2022/04/05 13:36:41;;;;;;;3.90;2.50;;;;;;;;;;5081530;28;20128;-69
2022/04/05 13:39:10;;;;;;;5.53;2.80;;;;;;;;;;5085998;28;20059;-69
2022/04/05 13:41:41;;;;;;;5.05;2.65;;;;;;;;;;5089503;28;20056;-69
2022/04/05 13:44:10;;;;;;;6.10;2.28;;;;;;;;;;5086012;28;20491;-70
2022/04/05 13:46:40;;;;;;;3.65;2.15;;;;;;;;;;5076252;28;20062;-70
2022/04/05 13:49:10;;;;;;;5.35;2.40;;;;;;;;;;5089941;28;20067;-69
2022/04/05 13:51:40;;;;;;;6.07;3.10;;;;;;;;;;5089010;28;20181;-69
2022/04/05 13:54:28;;;;;;;4.68;2.72;;;;;;;;;;5087193;28;20461;-70
2022/04/05 13:56:58;;;;;;;4.78;2.70;;;;;;;;;;5088116;28;20487;-70
2022/04/05 13:59:27;;;;;;;6.28;2.75;;;;;;;;;;5092192;28;20166;-69
2022/04/05 14:01:56;;;;;;;4.57;2.20;;;;;;;;;;5088453;28;20109;-70
2022/04/05 14:04:24;;;;;;;6.32;2.42;;;;;;;;;;5089646;28;20052;-70
2022/04/05 14:06:53;;;;;;;6.22;2.80;;;;;;;;;;5087372;28;20044;-70
2022/04/05 14:09:21;;;;;;;5.55;2.20;;;;;;;;;;5087675;28;20047;-70
2022/04/05 14:11:50;;;;;;;4.80;2.97;;;;;;;;;;5088241;28;20435;-70
2022/04/05 14:14:20;;;;;;;4.05;2.08;;;;;;;;;;5087887;28;20083;-70
2022/04/05 14:16:49;;;;;;;6.78;2.47;;;;;;;;;;5082968;28;20050;-70
2022/04/05 14:19:17;;;;;;;6.82;2.50;;;;;;;;;;5085229;28;20055;-70
2022/04/05 14:21:46;;;;;;;7.90;2.78;;;;;;;;;;5085822;28;20127;-70
2022/04/05 14:24:15;;;;;;;5.70;2.60;;;;;;;;;;5086539;28;20047;-70
2022/04/05 14:26:44;;;;;;;3.83;2.15;;;;;;;;;;5086904;28;20056;-70
2022/04/05 14:29:15;;;;;;;4.75;2.47;;;;;;;;;;5086201;28;20123;-70
2022/04/05 14:31:46;;;;;;;3.88;2.30;;;;;;;;;;5087430;28;20056;-70
2022/04/05 14:34:15;;;;;;;2.80;2.03;;;;;;;;;;5081975;28;20044;-70
2022/04/05 14:36:45;;;;;;;4.78;2.40;;;;;;;;;;5084803;28;20036;-70
2022/04/05 14:39:13;;;;;;;3.60;2.22;;;;;;;;;;5085282;28;20071;-70
2022/04/05 14:41:42;;;;;;;3.75;2.08;;;;;;;;;;5085357;28;20079;-71
2022/04/05 14:44:11;;;;;;;4.13;2.03;;;;;;;;;;5086865;28;20052;-71
2022/04/05 14:46:40;;;;;;;3.10;2.05;;;;;;;;;;5081847;28;20108;-71
2022/04/05 14:49:15;;;;;;;3.33;1.85;;;;;;;;;;5079224;28;20044;-71
2022/04/05 14:51:44;;;;;;;4.22;1.90;;;;;;;;;;5081946;28;20069;-70
2022/04/05 14:54:13;;;;;;;3.47;2.03;;;;;;;;;;5092163;28;20047;-70
2022/04/05 14:56:42;;;;;;;6.80;2.08;;;;;;;;;;5087773;28;20040;-70